Time;durP1;ratioP1;P1;durP2;ratioP2;P2;SDS_P1;SDS_P2;PMS_P1;PMS_P2;Temp;Humidity;BMP_temperature;BMP_pressure;BME280_temperature;BME280_humidity;BME280_pressure;Samples;Min_cycle;Max_cycle;Signal;HPM_P1;HPM_P2
2022/07/21 00:00:27;;;;;;;3.60;0.98;;;18.80;99.90;;;;;;4959318;28;20709;-58
2022/07/21 00:02:57;;;;;;;5.90;1.00;;;18.70;99.90;;;;;;4959063;28;20223;-58
2022/07/21 00:05:24;;;;;;;3.88;1.02;;;18.70;99.90;;;;;;4959210;28;20180;-58
2022/07/21 00:07:51;;;;;;;3.95;1.05;;;18.70;99.90;;;;;;4959270;28;20175;-58
2022/07/21 00:10:18;;;;;;;2.60;1.25;;;18.60;99.90;;;;;;4958488;28;20251;-58
2022/07/21 00:12:44;;;;;;;6.03;1.33;;;18.50;99.90;;;;;;4958752;28;20547;-58
2022/07/21 00:15:11;;;;;;;6.88;1.00;;;18.50;99.90;;;;;;4959307;28;20169;-58
2022/07/21 00:17:37;;;;;;;1.42;0.80;;;18.40;99.90;;;;;;4958802;28;20184;-58
2022/07/21 00:20:05;;;;;;;4.43;1.10;;;18.40;99.90;;;;;;4958807;28;20294;-58
2022/07/21 00:22:31;;;;;;;5.57;0.95;;;18.40;99.90;;;;;;4959237;28;20234;-58
2022/07/21 00:24:58;;;;;;;3.30;1.23;;;18.30;99.90;;;;;;4958505;28;20181;-58
2022/07/21 00:27:24;;;;;;;2.97;0.82;;;18.30;99.90;;;;;;4958783;28;20191;-58
2022/07/21 00:29:50;;;;;;;1.58;0.90;;;18.20;99.90;;;;;;4958402;28;20216;-58
2022/07/21 00:32:16;;;;;;;3.10;1.00;;;18.30;99.90;;;;;;4958576;28;20298;-57
2022/07/21 00:34:43;;;;;;;4.55;1.08;;;18.30;99.90;;;;;;4959056;28;20169;-58
2022/07/21 00:37:10;;;;;;;3.03;0.90;;;18.30;99.90;;;;;;4958741;28;20173;-58
2022/07/21 00:39:37;;;;;;;5.57;1.20;;;18.40;99.90;;;;;;4958824;28;20199;-58
2022/07/21 00:42:03;;;;;;;3.25;0.82;;;18.40;99.90;;;;;;4959029;28;20183;-58
2022/07/21 00:44:30;;;;;;;5.70;1.00;;;18.40;99.90;;;;;;4959042;28;20203;-57
2022/07/21 00:46:56;;;;;;;3.45;0.90;;;18.40;99.90;;;;;;4958706;28;20176;-57
2022/07/21 00:49:22;;;;;;;2.38;0.85;;;18.40;99.90;;;;;;4957982;28;20208;-57
2022/07/21 00:51:49;;;;;;;4.18;1.35;;;18.40;99.90;;;;;;4958902;28;20173;-57
2022/07/21 00:54:16;;;;;;;6.40;1.10;;;18.40;99.90;;;;;;4958861;28;20235;-68
2022/07/21 00:56:42;;;;;;;2.65;1.10;;;18.50;99.90;;;;;;4958844;28;20531;-57
2022/07/21 00:59:08;;;;;;;6.35;1.20;;;18.40;99.90;;;;;;4958883;28;20203;-56
2022/07/21 01:01:34;;;;;;;4.70;1.27;;;18.40;99.90;;;;;;4958193;28;20568;-56
2022/07/21 01:03:59;;;;;;;2.50;1.00;;;18.40;99.90;;;;;;4958756;28;20533;-57
2022/07/21 01:06:25;;;;;;;5.40;1.20;;;18.40;99.90;;;;;;4955906;28;20177;-57
2022/07/21 01:08:52;;;;;;;2.40;0.93;;;18.30;99.90;;;;;;4955648;29;20208;-57
2022/07/21 01:11:20;;;;;;;2.45;1.02;;;18.30;99.90;;;;;;4955352;28;20263;-58
2022/07/21 01:13:47;;;;;;;5.25;1.27;;;18.30;99.90;;;;;;4955401;29;20204;-58
2022/07/21 01:16:14;;;;;;;5.40;0.90;;;18.20;99.90;;;;;;4955566;28;20227;-62
2022/07/21 01:18:40;;;;;;;3.15;1.08;;;18.20;99.90;;;;;;4952688;28;20220;-58
2022/07/21 01:21:27;;;;;;;3.53;0.90;;;18.20;99.90;;;;;;4955681;28;20176;-58
2022/07/21 01:23:53;;;;;;;4.68;0.93;;;18.20;99.90;;;;;;4955527;28;20191;-58
2022/07/21 01:26:19;;;;;;;5.35;0.80;;;18.10;99.90;;;;;;4954998;28;20644;-57
2022/07/21 01:28:45;;;;;;;2.63;0.70;;;18.10;99.90;;;;;;4954882;28;20583;-57
2022/07/21 01:31:11;;;;;;;1.80;1.02;;;18.10;99.90;;;;;;4955287;28;20699;-57
2022/07/21 01:33:37;;;;;;;1.25;0.80;;;18.10;99.90;;;;;;4954963;28;20184;-57
2022/07/21 01:36:03;;;;;;;4.95;0.88;;;18.10;99.90;;;;;;4955234;28;20177;-57
2022/07/21 01:44:06;;;;;;;4.15;0.70;;;18.10;99.90;;;;;;4954961;29;20179;-56
2022/07/21 01:46:34;;;;;;;5.68;0.80;;;18.10;99.90;;;;;;4955159;28;20650;-57
2022/07/21 01:49:00;;;;;;;3.53;0.85;;;18.00;99.90;;;;;;4954614;28;20316;-57
2022/07/21 01:51:26;;;;;;;5.05;0.80;;;18.10;99.90;;;;;;4954756;28;20259;-57
2022/07/21 01:53:52;;;;;;;2.15;0.70;;;18.00;99.90;;;;;;4954649;28;20703;-57
2022/07/21 01:56:23;;;;;;;6.38;0.70;;;18.00;99.90;;;;;;4954901;29;20239;-57
2022/07/21 01:58:51;;;;;;;1.73;0.93;;;18.00;99.90;;;;;;4954552;28;20640;-57
2022/07/21 02:01:18;;;;;;;3.05;0.73;;;18.00;99.90;;;;;;4954244;28;20188;-58
2022/07/21 02:03:44;;;;;;;2.13;0.80;;;18.10;99.90;;;;;;4954805;28;20198;-58
2022/07/21 02:06:11;;;;;;;2.97;0.65;;;18.00;99.90;;;;;;4954391;28;20212;-57
2022/07/21 02:08:36;;;;;;;3.70;0.70;;;18.00;99.90;;;;;;4954649;28;20207;-57
2022/07/21 02:11:04;;;;;;;5.15;1.25;;;18.00;99.90;;;;;;4954652;28;20537;-57
2022/07/21 02:13:29;;;;;;;2.45;1.10;;;18.00;99.90;;;;;;4954329;28;20695;-57
2022/07/21 02:15:55;;;;;;;3.88;0.90;;;17.90;99.90;;;;;;4954575;28;20212;-57
2022/07/21 02:18:21;;;;;;;1.35;0.70;;;17.90;99.90;;;;;;4953785;28;20648;-57
2022/07/21 02:20:47;;;;;;;3.38;0.75;;;19.70;99.90;;;;;;4954355;29;20177;-57
2022/07/21 02:23:14;;;;;;;1.75;0.60;;;17.80;99.90;;;;;;4954467;28;20177;-57
2022/07/21 02:25:40;;;;;;;1.17;0.60;;;17.80;99.90;;;;;;4953941;28;20181;-57
2022/07/21 02:28:06;;;;;;;1.80;0.77;;;17.80;99.90;;;;;;4953955;28;20239;-57
2022/07/21 02:30:32;;;;;;;2.72;0.60;;;17.80;99.90;;;;;;4954284;29;20184;-56
2022/07/21 02:32:58;;;;;;;3.15;0.70;;;17.80;99.90;;;;;;4954095;28;20628;-56
2022/07/21 02:35:24;;;;;;;3.65;0.90;;;17.90;99.90;;;;;;4953894;28;20196;-56
2022/07/21 02:37:50;;;;;;;3.85;0.70;;;17.90;99.90;;;;;;4954079;28;20197;-56
2022/07/21 02:40:15;;;;;;;2.95;0.57;;;17.90;99.90;;;;;;4953831;28;20169;-56
2022/07/21 02:42:42;;;;;;;2.28;0.90;;;17.90;99.90;;;;;;4953717;28;20239;-56
2022/07/21 02:45:09;;;;;;;3.00;0.57;;;17.80;99.90;;;;;;4953919;28;20177;-57
2022/07/21 02:48:08;;;;;;;3.38;0.80;;;17.70;99.90;;;;;;4953501;28;20272;-58
2022/07/21 02:50:36;;;;;;;2.10;0.75;;;17.80;99.90;;;;;;4944468;29;20617;-59
2022/07/21 02:53:11;;;;;;;2.92;0.80;;;17.70;99.90;;;;;;4953420;28;20236;-58
2022/07/21 02:55:38;;;;;;;2.40;0.75;;;17.80;99.90;;;;;;4953924;28;20234;-60
2022/07/21 02:58:20;;;;;;;5.78;0.90;;;17.80;99.90;;;;;;4953716;28;20247;-59
2022/07/21 03:00:58;;;;;;;2.05;0.70;;;17.80;99.90;;;;;;4953786;28;20398;-59
2022/07/21 03:03:26;;;;;;;2.28;0.90;;;17.80;99.90;;;;;;4952510;29;20188;-58
2022/07/21 03:05:53;;;;;;;2.75;0.70;;;17.70;99.90;;;;;;4953658;28;20180;-59
2022/07/21 03:08:19;;;;;;;4.75;0.60;;;17.70;99.90;;;;;;4953282;28;20200;-59
2022/07/21 03:10:46;;;;;;;2.30;0.77;;;17.70;99.90;;;;;;4953474;28;20199;-59
2022/07/21 03:13:12;;;;;;;1.20;0.73;;;17.70;99.90;;;;;;4953488;28;20183;-59
2022/07/21 03:15:39;;;;;;;3.38;0.80;;;17.60;99.90;;;;;;4953015;28;20191;-59
2022/07/21 03:18:05;;;;;;;6.28;0.90;;;17.60;99.90;;;;;;4953115;28;20220;-59
2022/07/21 03:20:33;;;;;;;4.93;0.70;;;17.50;99.90;;;;;;4952740;28;20252;-59
2022/07/21 03:23:00;;;;;;;2.70;0.82;;;17.40;99.90;;;;;;4934197;29;20620;-59
2022/07/21 03:25:26;;;;;;;2.53;0.70;;;17.40;99.90;;;;;;4934167;29;20222;-63
2022/07/21 03:27:52;;;;;;;2.90;0.80;;;17.40;99.90;;;;;;4952151;29;20183;-59
2022/07/21 03:30:18;;;;;;;4.10;0.65;;;17.40;99.90;;;;;;4952285;28;20295;-61
2022/07/21 03:32:45;;;;;;;2.80;0.90;;;17.30;99.90;;;;;;4953341;28;20180;-57
2022/07/21 03:35:12;;;;;;;2.20;0.82;;;17.30;99.90;;;;;;4951888;29;20188;-57
2022/07/21 03:37:48;;;;;;;1.55;0.60;;;17.30;99.90;;;;;;4952831;28;20699;-57
2022/07/21 03:40:16;;;;;;;1.73;0.65;;;17.30;99.90;;;;;;4953118;28;20659;-57
2022/07/21 03:42:42;;;;;;;1.88;0.68;;;17.20;99.90;;;;;;4953336;28;20227;-57
2022/07/21 03:45:09;;;;;;;2.92;1.00;;;17.20;99.90;;;;;;4952981;28;20175;-57
2022/07/21 03:47:35;;;;;;;7.65;1.10;;;17.10;99.90;;;;;;4952550;28;20208;-57
2022/07/21 03:50:02;;;;;;;4.28;0.82;;;17.10;99.90;;;;;;4952879;28;20208;-57
2022/07/21 03:52:28;;;;;;;2.97;1.00;;;17.10;99.90;;;;;;4952541;28;20199;-57
2022/07/21 03:55:07;;;;;;;2.45;0.90;;;17.00;99.90;;;;;;4952839;28;20223;-57
2022/07/21 03:57:46;;;;;;;2.47;0.80;;;17.00;99.90;;;;;;4952864;28;20280;-56
2022/07/21 04:00:18;;;;;;;3.78;1.08;;;17.00;99.90;;;;;;4952911;28;20172;-57
2022/07/21 04:02:45;;;;;;;2.05;0.60;;;17.00;99.90;;;;;;4952590;28;20183;-56
2022/07/21 04:05:11;;;;;;;4.20;1.13;;;17.00;99.90;;;;;;4952853;28;20534;-56
2022/07/21 04:07:44;;;;;;;4.78;0.77;;;17.00;99.90;;;;;;4951529;29;20176;-56
2022/07/21 04:10:12;;;;;;;3.45;0.70;;;16.90;99.90;;;;;;4952599;28;20197;-56
2022/07/21 04:12:38;;;;;;;3.08;1.00;;;17.00;99.90;;;;;;4952845;28;20231;-56
2022/07/21 04:15:06;;;;;;;2.20;0.88;;;17.00;99.90;;;;;;4952880;28;20259;-57
2022/07/21 04:17:32;;;;;;;5.25;0.77;;;17.00;99.90;;;;;;4952479;28;20251;-57
2022/07/21 04:19:58;;;;;;;4.15;0.90;;;16.90;99.90;;;;;;4950480;28;20302;-56
2022/07/21 04:22:24;;;;;;;3.22;0.80;;;17.00;99.90;;;;;;4952634;28;20232;-56
2022/07/21 04:24:50;;;;;;;5.35;1.00;;;16.90;99.90;;;;;;4952049;28;20277;-55
2022/07/21 04:27:16;;;;;;;5.53;0.90;;;16.90;99.90;;;;;;4951811;29;20276;-56
2022/07/21 04:29:41;;;;;;;5.00;0.80;;;16.80;99.90;;;;;;4952375;28;20688;-56
2022/07/21 04:32:07;;;;;;;4.65;0.90;;;16.90;99.90;;;;;;4952287;28;20177;-56
2022/07/21 04:34:33;;;;;;;2.47;1.10;;;16.80;99.90;;;;;;4952613;28;20172;-56
2022/07/21 04:36:59;;;;;;;4.75;1.00;;;16.80;99.90;;;;;;4952334;28;20656;-57
2022/07/21 04:39:25;;;;;;;2.75;0.90;;;16.70;99.90;;;;;;4952573;28;20248;-57
2022/07/21 04:41:50;;;;;;;4.47;0.90;;;16.70;99.90;;;;;;4955261;28;20196;-56
2022/07/21 04:44:16;;;;;;;3.40;0.98;;;16.60;99.90;;;;;;4956155;28;20536;-56
2022/07/21 04:46:42;;;;;;;2.10;0.75;;;16.60;99.90;;;;;;4956119;28;20183;-57
2022/07/21 04:49:08;;;;;;;5.97;1.38;;;16.60;99.90;;;;;;4955776;28;20283;-57
2022/07/21 04:51:34;;;;;;;2.47;1.05;;;16.50;99.90;;;;;;4955836;28;20183;-57
2022/07/21 04:53:59;;;;;;;2.28;0.90;;;16.50;99.90;;;;;;4956075;28;20211;-57
2022/07/21 04:56:25;;;;;;;2.50;0.80;;;16.60;99.90;;;;;;4954833;28;20632;-57
2022/07/21 04:58:51;;;;;;;5.18;1.05;;;16.50;99.90;;;;;;4955780;28;20176;-57
2022/07/21 05:01:20;;;;;;;3.10;1.02;;;16.50;99.90;;;;;;4956312;28;20191;-58
2022/07/21 05:03:46;;;;;;;1.92;0.95;;;16.50;99.90;;;;;;4955917;28;20322;-57
2022/07/21 05:06:12;;;;;;;5.57;1.00;;;16.50;99.90;;;;;;4955892;28;20224;-57
2022/07/21 05:08:38;;;;;;;3.08;0.82;;;16.40;99.90;;;;;;4955706;28;20211;-57
2022/07/21 05:11:04;;;;;;;3.17;0.90;;;16.40;99.90;;;;;;4955286;29;20180;-57
2022/07/21 05:13:30;;;;;;;4.13;0.93;;;16.40;99.90;;;;;;4955562;28;20169;-56
2022/07/21 05:15:55;;;;;;;1.73;0.98;;;16.30;99.90;;;;;;4955605;28;20188;-57
2022/07/21 05:18:21;;;;;;;2.00;0.80;;;16.40;99.90;;;;;;4955324;28;20176;-57
2022/07/21 05:20:47;;;;;;;2.97;1.20;;;16.40;99.90;;;;;;4954923;28;20220;-56
2022/07/21 05:23:13;;;;;;;7.05;1.33;;;16.40;99.90;;;;;;4955276;28;20185;-57
2022/07/21 05:25:39;;;;;;;4.00;0.93;;;16.40;99.90;;;;;;4954880;28;20671;-56
2022/07/21 05:28:08;;;;;;;5.82;1.20;;;16.50;99.90;;;;;;4954914;28;20185;-56
2022/07/21 05:30:35;;;;;;;4.35;1.13;;;16.50;99.90;;;;;;4953525;29;20184;-57
2022/07/21 05:33:01;;;;;;;5.10;1.30;;;16.50;99.90;;;;;;4955190;28;20185;-57
2022/07/21 05:35:27;;;;;;;4.15;1.30;;;16.60;99.90;;;;;;4955225;28;20183;-57
2022/07/21 05:37:53;;;;;;;3.28;1.02;;;16.50;99.90;;;;;;4955058;28;20182;-56
2022/07/21 05:40:19;;;;;;;3.58;0.90;;;16.50;99.90;;;;;;4953841;29;20608;-57
2022/07/21 05:42:45;;;;;;;6.82;0.90;;;16.40;99.90;;;;;;4955029;28;20183;-57
2022/07/21 05:45:11;;;;;;;3.38;0.98;;;16.40;99.90;;;;;;4954614;28;20632;-57
2022/07/21 05:47:38;;;;;;;3.85;1.27;;;16.40;99.90;;;;;;4954684;28;20319;-57
2022/07/21 05:50:04;;;;;;;4.00;1.10;;;16.30;99.90;;;;;;4954505;28;20216;-57
2022/07/21 05:52:30;;;;;;;2.40;1.02;;;16.30;99.90;;;;;;4954132;28;20181;-57
2022/07/21 05:54:56;;;;;;;5.13;1.30;;;16.30;99.90;;;;;;4954897;28;20192;-57
2022/07/21 05:57:22;;;;;;;2.95;0.90;;;16.30;99.90;;;;;;4954407;28;20175;-57
2022/07/21 05:59:47;;;;;;;4.38;0.98;;;16.30;99.90;;;;;;4954883;28;20531;-57
2022/07/21 06:02:14;;;;;;;3.72;1.00;;;16.30;99.90;;;;;;4954259;28;20195;-57
2022/07/21 06:04:40;;;;;;;6.25;1.02;;;16.30;99.90;;;;;;4954826;28;20335;-57
2022/07/21 06:07:05;;;;;;;1.40;0.85;;;16.40;99.90;;;;;;4954420;28;20691;-57
2022/07/21 06:09:31;;;;;;;6.47;0.95;;;16.40;99.90;;;;;;4954475;28;20311;-57
2022/07/21 06:11:57;;;;;;;4.70;1.13;;;16.40;99.90;;;;;;4954250;29;20207;-57
2022/07/21 06:14:23;;;;;;;2.58;1.10;;;16.40;99.90;;;;;;4954783;28;20179;-58
2022/07/21 06:16:49;;;;;;;2.55;0.73;;;16.50;99.90;;;;;;4954250;28;20185;-63
2022/07/21 06:19:16;;;;;;;5.88;1.13;;;16.50;99.90;;;;;;4953643;29;20692;-59
2022/07/21 06:21:41;;;;;;;3.00;0.93;;;16.50;99.90;;;;;;4954225;28;20271;-58
2022/07/21 06:24:08;;;;;;;3.00;1.10;;;16.50;99.90;;;;;;4954343;28;20275;-58
2022/07/21 06:26:34;;;;;;;3.42;0.90;;;16.70;99.90;;;;;;4953471;28;20180;-57
2022/07/21 06:29:00;;;;;;;6.53;1.23;;;16.60;99.90;;;;;;4954426;28;20235;-57
2022/07/21 06:31:26;;;;;;;3.42;0.90;;;16.60;99.90;;;;;;4953842;28;20222;-57
2022/07/21 06:33:52;;;;;;;4.63;1.05;;;16.70;99.90;;;;;;4953926;29;20644;-57
2022/07/21 06:36:18;;;;;;;6.82;1.00;;;16.60;99.90;;;;;;4953900;29;20173;-57
2022/07/21 06:38:44;;;;;;;2.05;0.80;;;16.60;99.90;;;;;;4953857;28;20172;-58
2022/07/21 06:41:11;;;;;;;4.07;0.88;;;16.70;99.90;;;;;;4951735;29;20188;-58
2022/07/21 06:43:37;;;;;;;2.10;0.75;;;16.80;99.90;;;;;;4953884;28;20204;-58
2022/07/21 06:46:03;;;;;;;4.15;0.98;;;16.90;99.90;;;;;;4953362;28;20200;-57
2022/07/21 06:48:29;;;;;;;1.45;0.70;;;17.00;99.90;;;;;;4950128;29;20215;-59
2022/07/21 06:50:57;;;;;;;3.30;0.90;;;16.90;99.90;;;;;;4953433;28;20185;-59
2022/07/21 06:53:23;;;;;;;2.92;0.80;;;17.00;99.90;;;;;;4953807;28;20211;-58
2022/07/21 06:55:53;;;;;;;4.07;0.95;;;17.00;99.90;;;;;;4953660;28;20670;-58
2022/07/21 06:58:22;;;;;;;5.47;1.23;;;17.10;99.90;;;;;;4953540;29;20228;-58
2022/07/21 07:00:49;;;;;;;1.73;0.82;;;17.10;99.90;;;;;;4953806;28;20191;-58
2022/07/21 07:03:16;;;;;;;7.07;1.20;;;17.30;99.90;;;;;;4953134;28;20652;-58
2022/07/21 07:05:44;;;;;;;4.68;0.80;;;17.30;99.90;;;;;;4952479;28;20259;-58
2022/07/21 07:08:10;;;;;;;2.28;0.80;;;17.40;99.90;;;;;;4963637;28;20179;-58
2022/07/21 07:10:36;;;;;;;4.80;0.90;;;17.40;99.90;;;;;;4969848;28;20670;-59
2022/07/21 07:13:03;;;;;;;5.13;0.90;;;17.50;99.90;;;;;;4953014;28;20181;-59
2022/07/21 07:15:29;;;;;;;5.78;1.15;;;17.50;99.90;;;;;;4952863;28;20212;-58
2022/07/21 07:17:55;;;;;;;4.10;0.82;;;17.90;99.90;;;;;;4952885;28;20173;-58
2022/07/21 07:20:22;;;;;;;4.93;1.00;;;17.70;99.90;;;;;;4951022;28;20695;-65
2022/07/21 07:22:48;;;;;;;4.28;1.05;;;17.70;99.90;;;;;;4953213;28;20181;-57
2022/07/21 07:25:17;;;;;;;5.78;1.15;;;17.70;99.90;;;;;;4952550;28;20191;-58
2022/07/21 07:27:46;;;;;;;4.95;1.05;;;17.80;99.90;;;;;;4953078;28;20184;-57
2022/07/21 07:30:13;;;;;;;7.53;1.10;;;17.90;99.90;;;;;;4952919;28;20219;-57
2022/07/21 07:32:40;;;;;;;11.98;1.63;;;17.90;99.90;;;;;;4953182;28;20260;-57
2022/07/21 07:35:10;;;;;;;9.40;1.33;;;18.00;99.90;;;;;;4953060;29;20176;-58
2022/07/21 07:37:38;;;;;;;3.90;1.20;;;18.10;99.90;;;;;;4952975;28;20176;-58
2022/07/21 07:40:07;;;;;;;5.47;1.30;;;18.20;99.90;;;;;;4953150;28;20212;-58
2022/07/21 07:42:35;;;;;;;6.90;1.52;;;18.10;99.90;;;;;;4953059;28;20176;-58
2022/07/21 07:45:02;;;;;;;3.95;1.35;;;18.10;99.90;;;;;;4952143;28;20331;-57
2022/07/21 07:47:29;;;;;;;6.10;1.38;;;18.10;99.90;;;;;;4953259;28;20169;-57
2022/07/21 07:49:54;;;;;;;8.38;1.77;;;18.20;99.90;;;;;;4952645;28;20216;-57
2022/07/21 07:52:21;;;;;;;2.83;1.30;;;18.30;99.90;;;;;;4952963;28;20643;-58
2022/07/21 07:54:47;;;;;;;3.58;1.20;;;18.20;99.90;;;;;;4952030;28;20184;-57
2022/07/21 07:57:13;;;;;;;6.95;1.52;;;18.20;99.90;;;;;;4952765;28;20268;-63
2022/07/21 07:59:39;;;;;;;6.10;1.52;;;18.40;99.90;;;;;;4952782;28;20722;-62
2022/07/21 08:02:04;;;;;;;4.80;1.42;;;18.40;99.90;;;;;;4952573;29;20173;-62
2022/07/21 08:04:30;;;;;;;5.43;1.45;;;18.40;99.90;;;;;;4951517;28;20180;-62
2022/07/21 08:06:56;;;;;;;6.97;1.70;;;18.70;99.90;;;;;;4952754;28;20168;-62
2022/07/21 08:09:22;;;;;;;5.75;1.70;;;18.60;99.90;;;;;;4953368;28;20275;-62
2022/07/21 08:11:48;;;;;;;7.22;1.58;;;18.70;99.90;;;;;;4952358;28;20177;-62
2022/07/21 08:14:14;;;;;;;7.35;1.60;;;18.70;99.90;;;;;;4952067;28;20183;-61
2022/07/21 08:16:41;;;;;;;11.07;2.00;;;18.70;99.90;;;;;;4955245;28;20486;-61
2022/07/21 08:19:07;;;;;;;8.90;1.23;;;18.80;99.90;;;;;;4956362;28;20228;-60
2022/07/21 08:21:33;;;;;;;4.20;1.25;;;18.80;99.90;;;;;;4965765;28;20175;-62
2022/07/21 08:24:00;;;;;;;4.13;1.38;;;18.80;99.90;;;;;;4975775;28;20252;-64
2022/07/21 08:26:26;;;;;;;6.93;1.40;;;18.80;99.90;;;;;;4965097;28;20184;-64
2022/07/21 08:28:57;;;;;;;10.52;2.53;;;18.80;99.90;;;;;;4956113;29;20258;-64
2022/07/21 08:31:24;;;;;;;6.68;1.42;;;18.80;99.90;;;;;;4956383;28;20165;-64
2022/07/21 08:33:54;;;;;;;4.20;1.33;;;19.00;99.90;;;;;;4954862;29;20567;-64
2022/07/21 08:36:20;;;;;;;10.10;1.67;;;19.10;99.90;;;;;;4955759;28;20256;-65
2022/07/21 08:38:46;;;;;;;5.57;1.45;;;19.40;99.90;;;;;;4954547;28;20260;-63
2022/07/21 08:41:12;;;;;;;4.97;1.30;;;19.60;99.90;;;;;;4956130;28;20208;-63
2022/07/21 08:43:38;;;;;;;8.00;1.55;;;19.60;99.90;;;;;;4955925;28;20191;-63
2022/07/21 08:46:04;;;;;;;7.65;1.17;;;19.90;99.90;;;;;;4967857;28;20228;-63
2022/07/21 08:48:31;;;;;;;9.60;1.27;;;20.10;99.90;;;;;;4975603;28;20207;-62
2022/07/21 08:50:57;;;;;;;5.72;1.30;;;20.00;99.90;;;;;;4972654;28;20184;-58
2022/07/21 08:53:24;;;;;;;9.75;1.85;;;20.30;99.90;;;;;;4955898;29;20283;-58
2022/07/21 08:55:50;;;;;;;6.85;1.10;;;20.40;99.90;;;;;;4955035;28;20208;-58
2022/07/21 08:58:16;;;;;;;3.63;1.40;;;20.60;99.90;;;;;;4955993;28;20172;-58
2022/07/21 09:00:45;;;;;;;4.07;1.15;;;20.50;99.90;;;;;;4955851;28;20289;-59
2022/07/21 09:03:29;;;;;;;7.47;1.40;;;20.80;99.90;;;;;;4955573;28;20179;-58
2022/07/21 09:06:04;;;;;;;5.82;1.60;;;21.20;99.90;;;;;;4955525;28;20185;-59
2022/07/21 09:08:45;;;;;;;6.00;1.40;;;21.50;99.90;;;;;;4955656;28;20505;-58
2022/07/21 09:11:30;;;;;;;5.65;1.50;;;21.30;99.90;;;;;;4955694;28;20184;-60
2022/07/21 09:14:09;;;;;;;8.02;1.80;;;21.40;99.90;;;;;;4955894;28;20188;-59
2022/07/21 09:16:39;;;;;;;9.38;1.60;;;21.30;99.90;;;;;;4955655;28;20169;-59
2022/07/21 09:19:06;;;;;;;4.05;1.30;;;21.20;99.90;;;;;;4954641;28;20298;-67
2022/07/21 09:21:34;;;;;;;4.50;1.00;;;21.40;99.90;;;;;;4955145;28;20184;-67
2022/07/21 09:24:18;;;;;;;6.32;1.40;;;21.80;99.90;;;;;;4954184;29;20184;-67
2022/07/21 09:27:00;;;;;;;6.35;1.20;;;21.90;99.90;;;;;;4954697;28;20651;-67
2022/07/21 09:29:32;;;;;;;7.05;1.60;;;22.10;99.90;;;;;;4955195;28;20747;-68
2022/07/21 09:32:11;;;;;;;8.70;1.60;;;21.80;99.90;;;;;;4955091;28;20172;-67
2022/07/21 09:34:36;;;;;;;3.90;1.30;;;22.10;99.90;;;;;;4936189;29;20177;-66
2022/07/21 09:37:06;;;;;;;4.28;1.52;;;22.50;99.90;;;;;;4936389;29;20170;-67
2022/07/21 09:39:47;;;;;;;5.93;1.90;;;22.40;99.90;;;;;;4952129;29;20256;-67
2022/07/21 09:42:24;;;;;;;8.52;2.10;;;22.10;99.90;;;;;;4954902;28;20176;-67
2022/07/21 09:45:00;;;;;;;9.68;2.33;;;22.30;99.90;;;;;;4954461;28;20176;-68
2022/07/21 09:47:29;;;;;;;8.07;2.38;;;22.60;99.90;;;;;;4954539;28;20191;-68
2022/07/21 09:49:56;;;;;;;6.72;2.00;;;23.10;99.90;;;;;;4953665;29;20376;-67
2022/07/21 09:52:29;;;;;;;6.25;2.08;;;23.50;99.90;;;;;;4954974;28;20193;-67
2022/07/21 09:54:57;;;;;;;7.07;1.92;;;22.20;99.90;;;;;;4954473;28;20184;-67
2022/07/21 09:57:23;;;;;;;8.30;2.15;;;21.70;99.90;;;;;;4954659;29;20191;-66
2022/07/21 09:59:50;;;;;;;10.15;2.45;;;21.50;99.90;;;;;;4954372;28;20247;-67
2022/07/21 10:02:24;;;;;;;7.07;2.03;;;22.00;99.90;;;;;;4954770;28;20172;-67
2022/07/21 10:05:06;;;;;;;9.05;1.77;;;22.20;99.90;;;;;;4954340;28;20603;-67
2022/07/21 10:07:35;;;;;;;4.95;1.95;;;22.70;99.90;;;;;;4953365;28;20263;-67
2022/07/21 10:10:01;;;;;;;8.43;2.33;;;22.80;99.90;;;;;;4954828;28;20254;-67
2022/07/21 10:12:27;;;;;;;8.23;2.40;;;23.00;99.90;;;;;;4954320;28;20684;-67
2022/07/21 10:14:54;;;;;;;11.40;3.05;;;24.20;99.90;;;;;;4954527;28;20180;-67
2022/07/21 10:17:21;;;;;;;5.63;2.10;;;24.30;99.90;;;;;;4953804;28;20202;-68
2022/07/21 10:20:06;;;;;;;7.15;2.47;;;24.60;99.90;;;;;;4953887;28;20307;-66
2022/07/21 10:23:01;;;;;;;7.40;1.98;;;24.50;99.90;;;;;;4954262;28;20184;-67
2022/07/21 10:25:27;;;;;;;7.22;2.40;;;24.70;99.90;;;;;;4954276;28;20204;-67
2022/07/21 10:28:29;;;;;;;7.57;2.13;;;25.20;99.90;;;;;;4954077;28;20644;-68
2022/07/21 10:30:57;;;;;;;8.52;2.10;;;25.10;99.90;;;;;;4876284;29;20198;-67
2022/07/21 10:33:46;;;;;;;5.45;2.00;;;25.50;99.90;;;;;;4939659;28;20212;-67
2022/07/21 10:36:35;;;;;;;8.98;2.47;;;25.30;99.90;;;;;;4941752;28;20177;-66
2022/07/21 10:39:07;;;;;;;7.07;2.47;;;25.70;99.90;;;;;;4950357;28;20187;-67
2022/07/21 10:41:47;;;;;;;6.15;2.60;;;26.00;99.90;;;;;;4954060;28;20184;-66
2022/07/21 10:44:28;;;;;;;8.05;2.20;;;26.10;99.90;;;;;;4953724;28;20169;-66
2022/07/21 10:47:11;;;;;;;9.45;2.83;;;26.40;99.90;;;;;;4953034;28;20177;-67
2022/07/21 10:49:57;;;;;;;8.68;2.25;;;26.50;99.90;;;;;;4951080;29;20244;-68
2022/07/21 10:52:37;;;;;;;6.22;2.33;;;27.00;99.90;;;;;;4953066;28;20644;-69
2022/07/21 10:55:29;;;;;;;8.23;2.72;;;27.00;99.90;;;;;;4953697;28;20275;-68
2022/07/21 10:58:25;;;;;;;5.97;2.50;;;26.50;99.90;;;;;;4953757;28;20181;-69
2022/07/21 11:00:58;;;;;;;8.10;2.67;;;27.30;99.90;;;;;;4939436;28;20189;-69
2022/07/21 11:03:33;;;;;;;7.57;2.50;;;28.40;99.90;;;;;;4952927;29;20647;-67
2022/07/21 11:06:19;;;;;;;8.38;2.80;;;27.60;99.90;;;;;;4953157;28;20718;-68
2022/07/21 11:08:52;;;;;;;11.93;3.28;;;27.30;99.90;;;;;;4953423;28;20291;-67
2022/07/21 11:11:22;;;;;;;7.15;2.60;;;27.50;99.90;;;;;;4953491;28;20184;-67
2022/07/21 11:14:13;;;;;;;6.72;2.47;;;26.80;99.90;;;;;;4953471;29;20203;-68
2022/07/21 11:16:42;;;;;;;9.10;2.33;;;27.50;99.90;;;;;;4953417;28;20208;-69
2022/07/21 11:19:42;;;;;;;5.82;2.80;;;28.10;99.90;;;;;;4948512;28;20220;-68
2022/07/21 11:22:14;;;;;;;8.80;2.95;;;27.80;99.90;;;;;;4949876;29;20722;-68
2022/07/21 11:24:46;;;;;;;8.43;3.33;;;27.40;99.90;;;;;;4943657;29;20791;-68
2022/07/21 11:27:14;;;;;;;6.90;2.83;;;27.10;99.90;;;;;;4952991;28;20184;-68
2022/07/21 11:29:42;;;;;;;8.43;2.60;;;26.50;99.90;;;;;;4953114;28;20731;-69
2022/07/21 11:32:09;;;;;;;6.15;2.50;;;25.60;99.90;;;;;;4953145;28;20651;-70
2022/07/21 11:34:59;;;;;;;9.02;2.50;;;25.00;99.90;;;;;;4952476;28;20181;-68
2022/07/21 11:37:34;;;;;;;5.43;2.50;;;24.40;99.90;;;;;;4943046;29;20180;-67
2022/07/21 11:40:02;;;;;;;5.35;2.47;;;24.10;99.90;;;;;;4953079;28;20186;-67
2022/07/21 11:42:30;;;;;;;13.10;2.70;;;23.80;99.90;;;;;;4952956;29;20267;-67
2022/07/21 11:44:56;;;;;;;10.60;2.55;;;23.60;99.90;;;;;;4953027;29;20184;-68
2022/07/21 11:47:26;;;;;;;9.50;2.60;;;23.60;99.90;;;;;;4952954;28;20169;-70
2022/07/21 11:49:57;;;;;;;4.95;2.30;;;23.70;99.90;;;;;;4952382;28;20220;-69
2022/07/21 11:52:33;;;;;;;8.10;2.47;;;23.70;99.90;;;;;;4952873;28;20223;-70
2022/07/21 11:55:01;;;;;;;7.25;2.83;;;23.70;99.90;;;;;;4952926;28;20176;-69
2022/07/21 11:57:28;;;;;;;8.38;3.10;;;23.90;99.90;;;;;;4952919;28;20176;-68
2022/07/21 11:59:56;;;;;;;5.22;2.30;;;23.90;99.90;;;;;;4952818;28;20191;-69
2022/07/21 12:02:27;;;;;;;11.55;3.03;;;24.00;99.90;;;;;;4952229;28;20180;-68
2022/07/21 12:04:58;;;;;;;7.82;3.08;;;24.50;99.90;;;;;;4952211;29;20232;-68
2022/07/21 12:07:28;;;;;;;9.73;2.90;;;24.50;99.90;;;;;;4952666;28;20198;-67
2022/07/21 12:10:04;;;;;;;8.57;2.60;;;25.50;99.90;;;;;;4952700;28;20359;-67
2022/07/21 12:12:38;;;;;;;6.90;2.50;;;24.80;99.90;;;;;;4952665;28;20241;-68
2022/07/21 12:15:29;;;;;;;7.50;2.70;;;24.70;99.90;;;;;;4943394;28;20206;-69
2022/07/21 12:18:00;;;;;;;10.88;2.97;;;24.70;99.90;;;;;;4952220;28;20188;-69
2022/07/21 12:20:35;;;;;;;9.10;3.03;;;23.60;99.90;;;;;;4950863;28;20224;-67
2022/07/21 12:23:16;;;;;;;5.35;2.47;;;23.60;99.90;;;;;;4952521;28;20172;-68
2022/07/21 12:25:42;;;;;;;12.45;2.85;;;23.00;99.90;;;;;;4952064;29;20179;-68
2022/07/21 12:28:08;;;;;;;7.15;2.90;;;24.10;99.90;;;;;;4952348;28;20176;-68
2022/07/21 12:30:44;;;;;;;5.70;2.55;;;24.50;99.90;;;;;;4952606;29;20224;-68
2022/07/21 12:33:15;;;;;;;10.13;2.75;;;25.00;99.90;;;;;;4952579;28;20568;-69
2022/07/21 12:35:43;;;;;;;10.18;3.40;;;26.50;99.90;;;;;;4951984;28;20265;-70
2022/07/21 12:38:10;;;;;;;5.20;2.65;;;27.50;99.90;;;;;;4952288;29;20212;-70
2022/07/21 12:40:45;;;;;;;3.58;2.30;;;28.30;99.90;;;;;;4952599;28;20176;-70
2022/07/21 12:43:17;;;;;;;8.38;3.00;;;27.90;99.90;;;;;;4952212;28;20187;-69
2022/07/21 12:45:57;;;;;;;5.72;2.90;;;28.90;99.90;;;;;;4952483;28;20236;-68
2022/07/21 12:48:28;;;;;;;9.50;2.53;;;28.10;99.90;;;;;;4952509;28;20164;-69
2022/07/21 12:51:05;;;;;;;8.13;3.10;;;27.40;99.90;;;;;;4952214;28;20547;-68
2022/07/21 12:53:33;;;;;;;6.68;3.10;;;26.90;99.90;;;;;;4952291;28;20176;-69
2022/07/21 12:55:59;;;;;;;5.93;2.65;;;27.20;99.90;;;;;;4952199;28;20177;-68
2022/07/21 12:58:25;;;;;;;16.13;3.00;;;28.30;99.90;;;;;;4951889;28;20177;-71
2022/07/21 13:00:52;;;;;;;8.32;2.90;;;28.50;99.90;;;;;;4952292;29;20184;-71